Rancho Penasquitos (500, 13811) Station Data

Red Flag Warning: No
Fire Weather Zone: 250
SDGE Region: North East
Lat/Lon: 32.972/-117.117

Observations

Time Wind Speed/Gust Temp(F) RH Fuel Moist Fuel Temp(F) Dewpt(F) Tmax(F) Tmin(F) Accum Precip 10-min Precip SL Press(mb)
2/27 11:40pm 283 8 G 12 50° 98% - - 50° 55.1° 47.9° - - -
2/27 11:20pm 279 9 G 15 51° 98% - - 51° 55.1° 47.9° - - -
2/27 11:10pm 271 8 G 13 52° 98% - - 51° 55.1° 47.9° - - -
2/27 11:00pm 271 7 G 12 52° 98% - - 51° 55.1° 47.9° - - -
2/27 10:50pm 241 6 G 12 52° 98% - - 52° 55.1° 47.9° - - -
2/27 10:40pm 247 3 G 6 52° 98% - - 51° 55.1° 47.9° - - -
2/27 10:30pm 287 4 G 8 52° 98% - - 51° 55.1° 47.9° - - -
2/27 10:20pm 277 5 G 8 52° 98% - - 51° 55.1° 47.9° - - -
2/27 10:10pm 297 6 G 10 52° 98% - - 51° 55.1° 47.9° - - -
2/27 10:00pm 271 6 G 12 52° 98% - - 51° 55.1° 47.9° - - -
2/27 9:50pm 292 8 G 11 52° 98% - - 51° 55.1° 47.9° - - -
2/27 9:40pm 304 9 G 12 52° 98% - - 51° 55.1° 47.9° - - -
2/27 9:30pm 283 7 G 10 53° 97% - - 52° 55.1° 47.9° - - -
2/27 9:20pm 197 8 G 19 54° 97% - - 53° 55.1° 47.9° - - -
2/27 9:10pm 181 9 G 20 54° 97% - - 53° 55.1° 47.9° - - -
2/27 9:00pm 175 13 G 20 54° 97% - - 53° 55.1° 47.9° - - -
2/27 8:50pm 172 12 G 18 54° 97% - - 53° 55.1° 47.9° - - -
2/27 8:40pm 179 11 G 18 54° 97% - - 53° 55.1° 47.9° - - -
2/27 8:30pm 192 11 G 19 54° 97% - - 53° 55.1° 47.9° - - -
2/27 8:20pm 193 11 G 21 54° 97% - - 53° 55.1° 47.9° - - -
2/27 8:10pm 172 16 G 25 54° 97% - - 53° 55.1° 47.9° - - -
2/27 8:00pm 169 15 G 24 54° 98% - - 54° 55.1° 47.9° - - -
2/27 7:50pm 179 12 G 19 54° 98% - - 54° 55.1° 47.9° - - -
2/27 7:40pm 176 11 G 20 54° 98% - - 54° 55.1° 47.9° - - -
2/27 7:30pm 191 9 G 17 54° 98% - - 53° 55.1° 47.9° - - -
2/27 7:20pm 191 11 G 18 54° 98% - - 53° 55.1° 47.9° - - -
2/27 7:10pm 189 11 G 22 54° 98% - - 53° 55.1° 47.9° - - -
2/27 7:00pm 167 11 G 22 54° 98% - - 53° 55.1° 47.9° - - -
2/27 6:50pm 176 10 G 17 54° 98% - - 53° 55.1° 47.9° - - -
2/27 6:40pm 181 10 G 18 54° 97% - - 53° 55.1° 47.9° - - -
2/27 6:30pm 181 12 G 20 54° 97% - - 53° 55.1° 47.9° - - -
2/27 6:20pm 186 9 G 13 54° 98% - - 53° 55.1° 47.9° - - -
2/27 6:10pm 181 8 G 14 54° 98% - - 53° 55.1° 47.9° - - -
2/27 6:00pm 185 8 G 12 54° 98% - - 53° 55.1° 47.9° - - -
2/27 5:50pm 183 9 G 14 54° 98% - - 53° 55.1° 47.9° - - -
2/27 5:40pm 183 10 G 18 54° 98% - - 53° 55.1° 47.9° - - -
2/27 5:30pm 196 11 G 22 54° 98% - - 54° 55.1° 47.9° - - -
2/27 5:20pm 198 9 G 16 54° 98% - - 54° 55.1° 47.9° - - -
2/27 5:10pm 190 10 G 18 54° 98% - - 53° 55.1° 47.9° - - -
2/27 5:00pm 176 12 G 23 54° 98% - - 53° 55.1° 47.9° - - -
2/27 4:50pm 179 11 G 19 54° 98% - - 54° 55.1° 47.9° - - -
2/27 4:40pm 170 12 G 22 54° 98% - - 54° 55.1° 47.9° - - -
2/27 4:30pm 167 13 G 23 54° 98% - - 54° 55.1° 47.9° - - -
2/27 4:20pm 173 12 G 22 54° 98% - - 54° 55.1° 47.9° - - -
2/27 4:10pm 184 11 G 19 54° 98% - - 54° 55.1° 47.9° - - -
2/27 4:00pm 176 10 G 16 54° 98% - - 54° 55.1° 47.9° - - -
2/27 3:50pm 180 11 G 17 54° 98% - - 54° 55.1° 47.9° - - -
2/27 3:40pm 170 15 G 27 54° 98% - - 54° 55.1° 47.9° - - -
2/27 3:30pm 166 14 G 24 54° 98% - - 54° 55.1° 47.9° - - -
2/27 3:20pm 166 15 G 23 54° 98% - - 54° 55.1° 47.9° - - -
2/27 3:10pm 162 15 G 27 54° 98% - - 54° 55.1° 47.9° - - -
2/27 3:00pm 158 17 G 26 54° 98% - - 54° 55.1° 47.9° - - -
2/27 2:50pm 159 15 G 25 54° 98% - - 54° 55.1° 47.9° - - -
2/27 2:40pm 163 15 G 28 54° 98% - - 54° 55.1° 47.9° - - -
2/27 2:30pm 165 17 G 26 54° 98% - - 54° 55.1° 47.9° - - -
2/27 2:20pm 174 15 G 24 54° 98% - - 54° 55.1° 47.9° - - -
2/27 2:10pm 178 14 G 24 54° 98% - - 54° 55.1° 47.9° - - -
2/27 2:00pm 166 15 G 26 54° 98% - - 54° 55.1° 47.9° - - -
2/27 1:50pm 173 15 G 24 54° 98% - - 54° 55.1° 47.9° - - -
2/27 1:40pm 178 13 G 22 54° 98% - - 54° 55.1° 47.9° - - -
2/27 1:30pm 181 13 G 22 54° 98% - - 54° 55.1° 47.9° - - -
2/27 1:20pm 195 10 G 18 54° 98% - - 54° 55.1° 47.9° - - -
2/27 1:10pm 198 10 G 15 54° 98% - - 54° 55.1° 47.9° - - -
2/27 1:00pm 200 8 G 14 54° 98% - - 54° 55.1° 47.9° - - -
2/27 12:50pm 181 10 G 20 54° 98% - - 54° 55.1° 47.9° - - -
2/27 12:40pm 183 11 G 19 54° 98% - - 54° 55.1° 47.9° - - -
2/27 12:30pm 186 12 G 19 54° 98% - - 54° 55.1° 47.9° - - -
2/27 12:20pm 182 10 G 17 54° 98% - - 54° 55.1° 47.9° - - -
2/27 12:10pm 173 11 G 20 54° 98% - - 54° 55.1° 47.9° - - -
2/27 12:00pm 171 12 G 19 54° 98% - - 54° 55.1° 47.9° - - -
2/27 11:50am 175 12 G 23 54° 98% - - 53° 55.1° 47.9° - - -
2/27 11:40am 166 14 G 24 54° 98% - - 53° 55.1° 47.9° - - -
2/27 11:30am 169 14 G 24 53° 98% - - 53° 55.1° 47.9° - - -
2/27 11:20am 163 14 G 22 53° 98% - - 53° 55.1° 47.9° - - -
2/27 11:10am 168 15 G 24 53° 98% - - 53° 55.1° 47.9° - - -
2/27 11:00am 162 15 G 24 53° 98% - - 53° 55.1° 47.9° - - -
2/27 10:50am 165 13 G 20 53° 98% - - 53° 55.1° 47.9° - - -
2/27 10:40am 167 12 G 19 53° 98% - - 53° 55.1° 47.9° - - -
2/27 10:30am 174 11 G 19 54° 98% - - 53° 55.1° 47.9° - - -
2/27 10:20am 178 13 G 22 54° 98% - - 53° 55.1° 47.9° - - -
2/27 10:10am 179 12 G 22 54° 98% - - 54° 55.1° 47.9° - - -
2/27 10:00am 190 10 G 18 54° 98% - - 54° 55.1° 47.9° - - -
2/27 9:50am 182 12 G 20 54° 98% - - 54° 55.1° 47.9° - - -
2/27 9:40am 180 8 G 15 54° 98% - - 54° 55.1° 47.9° - - -
2/27 9:30am 173 13 G 23 54° 98% - - 54° 55.1° 47.9° - - -
2/27 9:20am 175 13 G 22 54° 98% - - 54° 55.1° 47.9° - - -
2/27 9:10am 182 11 G 18 54° 98% - - 54° 55.1° 47.9° - - -
2/27 9:00am 179 10 G 17 54° 98% - - 54° 55.1° 47.9° - - -
2/27 8:50am 166 14 G 24 54° 98% - - 54° 55.1° 47.9° - - -
2/27 8:40am 175 9 G 16 54° 98% - - 54° 55.1° 47.9° - - -
2/27 8:30am 173 9 G 17 54° 98% - - 54° 55.1° 47.9° - - -
2/27 8:20am 175 9 G 16 55° 98% - - 54° 55.1° 47.9° - - -
2/27 8:10am 175 9 G 14 55° 98% - - 54° 55.1° 47.9° - - -
2/27 8:00am 169 11 G 16 55° 98% - - 54° 55.1° 47.9° - - -
2/27 7:50am 173 10 G 19 55° 98% - - 54° 55.1° 47.9° - - -
2/27 7:40am 174 10 G 20 55° 98% - - 54° 55.1° 47.9° - - -
2/27 7:30am 179 11 G 17 55° 98% - - 54° 55.1° 47.9° - - -
2/27 7:20am 174 10 G 16 55° 98% - - 54° 55.1° 47.9° - - -
2/27 7:10am 172 12 G 20 55° 98% - - 54° 55.1° 47.9° - - -
2/27 7:00am 178 11 G 19 55° 98% - - 54° 55.1° 47.9° - - -
2/27 6:50am 179 10 G 18 55° 98% - - 54° 55.1° 47.9° - - -
2/27 6:40am 178 10 G 20 55° 98% - - 54° 55.1° 47.9° - - -
2/27 6:30am 180 12 G 20 54° 98% - - 54° 55.1° 47.9° - - -
2/27 6:20am 179 10 G 16 54° 98% - - 54° 55.1° 47.9° - - -
2/27 6:10am 178 12 G 18 54° 98% - - 54° 54.9° 47.9° - - -
2/27 6:00am 173 10 G 20 54° 98% - - 54° 54.8° 47.9° - - -
2/27 5:50am 172 10 G 18 54° 98% - - 53° 54.7° 47.9° - - -
2/27 5:40am 156 10 G 17 54° 98% - - 53° 54.2° 47.9° - - -
2/27 5:30am 153 9 G 13 53° 97% - - 52° 53.8° 47.9° - - -
2/27 5:20am 149 7 G 12 52° 97% - - 52° 53.1° 47.9° - - -
2/27 5:10am 143 7 G 11 52° 97% - - 51° 52.5° 47.9° - - -
2/27 5:00am 126 8 G 13 51° 97% - - 50° 52° 47.9° - - -
2/27 4:50am 118 9 G 14 51° 96% - - 50° 52° 47.9° - - -
2/27 4:40am 117 11 G 15 51° 96% - - 50° 52° 47.9° - - -
2/27 4:30am 108 11 G 16 51° 95% - - 50° 52° 47.9° - - -
2/27 4:20am 101 11 G 17 51° 95% - - 50° 51.7° 47.9° - - -
2/27 4:10am 85 10 G 15 51° 95% - - 50° 51.7° 47.9° - - -
2/27 4:00am 78 11 G 14 51° 95% - - 50° 51.7° 47.9° - - -
2/27 3:50am 79 10 G 14 50° 95% - - 49° 51° 47.9° - - -
2/27 3:40am 76 10 G 13 50° 95% - - 49° 50.9° 47.9° - - -
2/27 3:30am 67 9 G 13 50° 95% - - 48° 50.3° 47.9° - - -
2/27 3:20am 64 8 G 11 50° 95% - - 48° 50.2° 47.9° - - -
2/27 3:10am 70 8 G 12 50° 95% - - 48° 50° 47.9° - - -
2/27 3:00am 62 7 G 11 49° 95% - - 48° 50° 47.9° - - -
2/27 2:50am 59 6 G 8 49° 95% - - 48° 49.9° 47.9° - - -
2/27 2:40am 51 6 G 9 49° 95% - - 48° 49.9° 47.9° - - -
2/27 2:30am 48 7 G 11 49° 95% - - 48° 49.9° 47.9° - - -
2/27 2:20am 54 8 G 11 49° 95% - - 48° 49.8° 47.9° - - -
2/27 2:10am 63 7 G 11 49° 95% - - 48° 49.6° 47.9° - - -
2/27 2:00am 72 7 G 12 49° 95% - - 48° 49.6° 47.9° - - -
2/27 1:50am 78 7 G 10 49° 95% - - 47° 49.6° 47.9° - - -
2/27 1:40am 68 8 G 12 49° 95% - - 47° 49.6° 47.9° - - -
2/27 1:30am 62 7 G 11 48° 95% - - 47° 49.6° 47.9° - - -
2/27 1:20am 68 8 G 12 48° 95% - - 47° 49.6° 48° - - -
2/27 1:10am 79 8 G 12 48° 95% - - 47° 49.6° 48° - - -
2/27 1:00am 81 7 G 11 48° 94% - - 47° 49.6° 48° - - -
2/27 12:50am 67 8 G 12 48° 93% - - 46° 49.6° 48° - - -
2/27 12:40am 59 7 G 11 49° 90% - - 46° 49.6° 48.3° - - -
2/27 12:30am 61 5 G 9 49° 87% - - 45° 49.6° 48.6° - - -
2/27 12:20am 58 5 G 8 49° 85% - - 45° 49.6° 48.7° - - -
2/27 12:10am 59 7 G 10 49° 83% - - 44° 49.6° 48.8° - - -
2/27 12:00am 61 6 G 9 49° 82% - - 44° 55.3° 46.9° - - -
2/26 11:50pm 62 5 G 8 49° 81% - - 44° 55.3° 46.9° - - -
2/26 11:40pm 57 5 G 7 49° 82% - - 44° 55.3° 46.9° - - -
2/26 11:30pm 58 6 G 8 49° 81% - - 43° 55.3° 46.9° - - -
2/26 11:20pm 60 6 G 8 49° 81% - - 43° 55.3° 46.9° - - -
2/26 11:10pm 64 6 G 8 49° 79% - - 43° 55.3° 46.9° - - -
2/26 11:00pm 70 6 G 7 49° 77% - - 43° 55.3° 46.9° - - -
2/26 10:50pm 66 6 G 7 49° 77% - - 42° 55.3° 46.9° - - -
2/26 10:40pm 67 7 G 7 49° 77% - - 42° 55.3° 46.9° - - -
2/26 10:30pm 69 7 G 8 49° 78% - - 42° 55.3° 46.9° - - -
2/26 10:20pm 69 7 G 8 49° 78% - - 42° 55.3° 46.9° - - -
2/26 10:10pm 69 7 G 8 49° 77% - - 42° 55.3° 46.9° - - -
2/26 10:00pm 72 7 G 9 49° 77% - - 42° 55.3° 46.9° - - -
2/26 9:50pm 61 4 G 8 50° 75% - - 42° 55.3° 46.9° - - -
2/26 9:40pm 35 1 G 2 50° 74% - - 42° 55.3° 46.9° - - -
2/26 9:30pm 18 2 G 3 50° 75% - - 42° 55.3° 46.9° - - -
2/26 9:20pm 25 2 G 3 50° 75% - - 42° 55.3° 46.9° - - -
2/26 9:10pm 93 1 G 3 50° 75% - - 42° 55.3° 46.9° - - -
2/26 9:00pm 99 1 G 2 49° 76% - - 42° 55.3° 46.9° - - -
2/26 8:50pm 193 0 G 1 49° 76% - - 42° 55.3° 46.9° - - -
2/26 8:40pm 246 0 G 1 49° 76% - - 42° 55.3° 46.9° - - -
2/26 8:30pm 303 1 G 3 49° 77% - - 42° 55.3° 46.9° - - -
2/26 8:20pm 224 1 G 3 49° 77% - - 42° 55.3° 46.9° - - -
2/26 8:10pm 243 1 G 2 49° 77% - - 42° 55.3° 46.9° - - -
2/26 8:00pm 297 1 G 3 49° 76% - - 42° 55.3° 46.9° - - -
2/26 7:50pm 254 2 G 4 50° 76% - - 42° 55.3° 46.9° - - -
2/26 7:40pm 237 2 G 5 50° 76% - - 43° 55.3° 46.9° - - -
2/26 7:30pm 206 2 G 5 50° 77% - - 43° 55.3° 46.9° - - -
2/26 7:20pm 219 2 G 4 50° 77% - - 43° 55.3° 46.9° - - -
2/26 7:10pm 206 2 G 4 50° 78% - - 43° 55.3° 46.9° - - -
2/26 7:00pm 201 2 G 5 50° 78% - - 43° 55.3° 46.9° - - -
2/26 6:50pm 211 2 G 4 50° 79% - - 43° 55.3° 46.9° - - -
2/26 6:40pm 221 3 G 8 50° 79% - - 44° 55.3° 46.9° - - -
2/26 6:30pm 242 3 G 7 50° 78% - - 44° 55.3° 46.9° - - -
2/26 6:20pm 227 4 G 7 50° 78% - - 43° 55.3° 46.9° - - -
2/26 6:10pm 235 4 G 7 50° 77% - - 43° 55.3° 46.9° - - -
2/26 6:00pm 240 4 G 8 51° 77% - - 44° 55.3° 46.9° - - -
2/26 5:50pm 221 4 G 7 51° 75% - - 44° 55.3° 46.9° - - -
2/26 5:40pm 197 4 G 8 51° 73% - - 43° 55.3° 46.9° - - -
2/26 5:30pm 193 4 G 9 52° 72% - - 43° 55.3° 46.9° - - -
2/26 5:20pm 207 5 G 10 53° 72% - - 45° 55.3° 46.9° - - -
2/26 5:10pm 219 5 G 10 53° 73% - - 45° 55.3° 46.9° - - -
2/26 5:00pm 205 7 G 10 54° 71% - - 45° 55.3° 46.9° - - -